»·PEaware :: N326MC KHQM-KYKM

N326MC :: KHQM-KYKM

FLIGHT INFORMATION

Flight Status: Arrived
Operator: Privately registered:
United States
More flights under this callsign
Pilot: Anonymous 5456 (5456)
Aircraft: PIPER PA-30 TWIN COMANCHE
(PA30)
More flights by this aircraft type
Origin: KHQM Bowerman
United States
Destination: KYKM Yakima Air Term/Mcallister
United States
More flights between these airports :: More routes between these airports
Route: OLM V204 WHYTE V204 YKM
File this flight plan on PilotEdge
Remarks:
Altitude:
(Current/Filed)
11,000ft
Speed:
(Current/Filed)
150kts
Departed: 06-Jul-17 11:40 AM
Arrived: 06-Jul-17 12:38 PM
Distance/Time
Traveled:
141nm/0:57
Distance/Time
To Go:
Arrived

Flight Plot

Page will automatically refresh every two minutes.

Flight plan parsing failed; only flown route is shown


Map Options




Map Legend


Flown Route
Filed Route
Departure Airport
Arrival Airport
Navaid (VOR, NDB)
Fix

Horizontal Profiles

Position Reports

Time Latitude Longitude Heading Altitude Ground
Speed
06-Jul-17 11:33 46.973408 -123.930167 169 20ft 0kts
06-Jul-17 11:34 46.973408 -123.930167 169 20ft 0kts
06-Jul-17 11:35 46.973408 -123.930167 169 20ft 0kts
06-Jul-17 11:36 46.973408 -123.930167 169 20ft 0kts
06-Jul-17 11:37 46.973408 -123.930167 169 20ft 0kts
06-Jul-17 11:38 46.973408 -123.930167 169 20ft 0kts
06-Jul-17 11:39 46.973274 -123.928207 79 20ft 9kts
06-Jul-17 11:40 46.973261 -123.927062 171 20ft 0kts
06-Jul-17 11:41 46.973261 -123.927062 171 20ft 0kts
06-Jul-17 11:42 46.973162 -123.927019 164 20ft 3kts
06-Jul-17 11:43 46.971427 -123.934841 258 56ft 92kts
06-Jul-17 11:44 46.962466 -123.932189 89 1598ft 103kts
06-Jul-17 11:45 46.967653 -123.891900 90 3018ft 101kts
06-Jul-17 11:46 46.970535 -123.849687 96 4178ft 107kts
06-Jul-17 11:47 46.971743 -123.807455 95 5332ft 105kts
06-Jul-17 11:48 46.972645 -123.765571 96 6409ft 105kts
06-Jul-17 11:49 46.973200 -123.722690 98 7392ft 108kts
06-Jul-17 11:50 46.973461 -123.677394 98 8249ft 117kts
06-Jul-17 11:51 46.973487 -123.629223 97 9085ft 122kts
06-Jul-17 11:52 46.973725 -123.579497 99 9905ft 123kts
06-Jul-17 11:53 46.973679 -123.529198 100 10687ft 125kts
06-Jul-17 11:54 46.973395 -123.474423 98 10947ft 161kts
06-Jul-17 11:55 46.973386 -123.404295 96 10944ft 180kts
06-Jul-17 11:56 46.973247 -123.332297 97 10990ft 183kts
06-Jul-17 11:57 46.973047 -123.257366 97 10989ft 186kts
06-Jul-17 11:58 46.972828 -123.182817 97 10989ft 186kts
06-Jul-17 11:59 46.972549 -123.106837 95 10989ft 187kts
06-Jul-17 12:00 46.972258 -123.031002 97 10989ft 187kts
06-Jul-17 12:01 46.971854 -122.955991 97 10989ft 187kts
06-Jul-17 12:02 46.965227 -122.882986 120 10990ft 178kts
06-Jul-17 12:03 46.945584 -122.817055 121 10989ft 177kts
06-Jul-17 12:04 46.925618 -122.751656 121 10989ft 178kts
06-Jul-17 12:05 46.905368 -122.685672 121 10989ft 178kts
06-Jul-17 12:06 46.885055 -122.619682 121 10989ft 178kts
06-Jul-17 12:07 46.864923 -122.554775 119 10989ft 179kts
06-Jul-17 12:08 46.844655 -122.488899 121 10990ft 178kts
06-Jul-17 12:09 46.824240 -122.423132 121 10990ft 178kts
06-Jul-17 12:10 46.803841 -122.357555 121 10990ft 178kts
06-Jul-17 12:11 46.783798 -122.293266 122 10987ft 178kts
06-Jul-17 12:12 46.763454 -122.228204 122 10987ft 178kts
06-Jul-17 12:13 46.742922 -122.162701 122 10987ft 178kts
06-Jul-17 12:14 46.722568 -122.097932 122 10987ft 178kts
06-Jul-17 12:15 46.702163 -122.033090 122 10987ft 176kts
06-Jul-17 12:16 46.696793 -122.016010 122 10986ft 175kts
06-Jul-17 12:17 46.688605 -121.990106 122 10986ft 174kts
06-Jul-17 12:18 46.669659 -121.930279 122 10987ft 172kts
06-Jul-17 12:19 46.649998 -121.868309 122 10988ft 172kts
06-Jul-17 12:20 46.630293 -121.806333 122 10988ft 172kts
06-Jul-17 12:21 46.610506 -121.744189 122 11068ft 170kts
06-Jul-17 12:22 46.590582 -121.681861 122 11008ft 175kts
06-Jul-17 12:23 46.578535 -121.613096 97 10988ft 183kts
06-Jul-17 12:24 46.578160 -121.538454 96 10908ft 186kts
06-Jul-17 12:25 46.577946 -121.463698 96 10906ft 184kts
06-Jul-17 12:26 46.577675 -121.389510 96 10907ft 183kts
06-Jul-17 12:27 46.577386 -121.316721 97 10932ft 182kts
06-Jul-17 12:28 46.577024 -121.242904 97 10933ft 182kts
06-Jul-17 12:29 46.576650 -121.169364 96 10933ft 182kts
06-Jul-17 12:30 46.576180 -121.095410 97 10933ft 183kts
06-Jul-17 12:31 46.575678 -121.021604 96 10933ft 183kts
06-Jul-17 12:32 46.574434 -120.947731 106 10808ft 186kts
06-Jul-17 12:33 46.564880 -120.867581 105 9532ft 209kts
06-Jul-17 12:34 46.552605 -120.788400 113 8930ft 181kts
06-Jul-17 12:35 46.543427 -120.714116 103 8085ft 194kts
06-Jul-17 12:36 46.533783 -120.636728 104 7085ft 193kts
06-Jul-17 12:37 46.523709 -120.563150 103 5436ft 183kts
06-Jul-17 12:38 46.518965 -120.494528 49 3760ft 167kts
06-Jul-17 12:39 46.555628 -120.491754 303 2170ft 140kts
06-Jul-17 12:40 46.566519 -120.535675 293 1106ft 81kts
06-Jul-17 12:41 46.570225 -120.549520 343 1097ft 15kts
06-Jul-17 12:42 46.571465 -120.550581 279 1097ft 11kts
06-Jul-17 12:43 46.572989 -120.553480 290 1097ft 3kts
06-Jul-17 12:44 46.572997 -120.553510 293 1097ft 0kts

Navigation Log

Ident Type
Flight plan parsing failed, navigation log unavailable